D/T METAR WX W/DIR W/SPE G/SPE TEMP DEWP
23/05/19 13:50 EGQS 231250Z 26018KT 9999 -RA FEW014 SCT032 BKN060 11/07 Q1009 BLU NOSIG -RA W (260°) 20.7mph 11°C 7°C
23/05/19 12:50 EGQS 231150Z 27020KT 9999 FEW014 BKN060 11/07 Q1009 BLU NOSIG W (270°) 23.0mph 11°C 7°C
23/05/19 11:50 EGQS 231050Z 26018KT 9999 FEW014 BKN050 11/07 Q1009 BLU NOSIG W (260°) 20.7mph 11°C 7°C
23/05/19 10:50 EGQS 230950Z 27016KT 9999 FEW014 SCT025 BKN042 10/07 Q1009 BLU NOSIG W (270°) 18.4mph 10°C 7°C
23/05/19 09:50 EGQS 230850Z 28018KT 9999 FEW014 BKN025 10/07 Q1010 BLU NOSIG W (280°) 20.7mph 10°C 7°C
23/05/19 09:15 EGQS 230815Z 29020KT 9999 FEW014 BKN026 09/07 Q1010 BLU NOSIG WNW (290°) 23.0mph 9°C 7°C
23/05/19 07:50 EGQS 230650Z 29019KT 9999 -RA FEW010 BKN020 BKN028 09/08 Q1010 WHT TEMPO FEW020 BKN025 BLU -RA WNW (290°) 21.9mph 9°C 8°C
23/05/19 06:50 EGQS 230550Z 30014KT 9999 -RA FEW009 BKN018 BKN025 09/08 Q1010 WHT TEMPO FEW018 BLU -RA WNW (300°) 16.1mph 9°C 8°C
23/05/19 05:50 EGQS 230450Z 28008KT 9999 -RA FEW010 BKN018 BKN025 10/08 Q1010 WHT -RA W (280°) 9.2mph 10°C 8°C
23/05/19 04:50 EGQS 230350Z 26012KT 9999 RA SCT013 BKN018 BKN025 10/08 Q1010 GRN RA W (260°) 13.8mph 10°C 8°C
23/05/19 03:50 EGQS 230250Z 25011KT 9999 -RA BKN022 BKN040 09/08 Q1010 WHT -RA WSW (250°) 12.7mph 9°C 8°C
23/05/19 02:50 EGQS 230150Z 25012KT 9999 FEW015 SCT024 BKN050 10/08 Q1011 WHT WSW (250°) 13.8mph 10°C 8°C
23/05/19 01:50 EGQS 230050Z 29016KT 9999 RA BKN020 BKN040 10/08 Q1011 WHT RA WNW (290°) 18.4mph 10°C 8°C
23/05/19 00:50 EGQS 222350Z 29014KT 9999 -RA FEW015 BKN020 BKN035 10/08 Q1011 WHT -RA WNW (290°) 16.1mph 10°C 8°C
22/05/19 23:50 EGQS 222250Z 29014KT 9999 -RA SCT015 SCT025 BKN035 10/08 Q1012 WHT TEMPO 7000 SHRA WHT -RA WNW (290°) 16.1mph 10°C 8°C
22/05/19 22:50 EGQS 222150Z 28016KT 9999 SCT015 BKN025 BKN035 10/08 Q1012 WHT TEMPO 7000 SHRA WHT W (280°) 18.4mph 10°C 8°C
22/05/19 21:50 EGQS 222050Z 28016KT 9999 -SHRA SCT015 BKN040 BKN050 10/08 Q1012 WHT TEMPO 7000 SHRA WHT -SHRA W (280°) 18.4mph 10°C 8°C
22/05/19 20:50 EGQS 221950Z 28013KT 9999 -SHRA FEW015 SCT022 BKN050 11/08 Q1012 WHT TEMPO 7000 SHRA WHT -SHRA W (280°) 15.0mph 11°C 8°C
22/05/19 19:50 EGQS 221850Z 28016KT 9999 FEW022 BKN034 BKN060 11/08 Q1012 BLU TEMPO SCT022 WHT W (280°) 18.4mph 11°C 8°C
22/05/19 18:50 EGQS 221750Z 28015KT 9999 -SHRA SCT018 BKN035 BKN045 11/09 Q1013 WHT TEMPO FEW018 BKN035 -SHRA W (280°) 17.3mph 11°C 9°C
22/05/19 17:50 EGQS 221650Z 28014KT 9999 FEW012 BKN035 BKN045 11/08 Q1013 BLU NOSIG W (280°) 16.1mph 11°C 8°C
22/05/19 16:50 EGQS 221550Z 30015KT 9999 FEW010 SCT035 BKN045 11/08 Q1013 BLU TEMPO 6000 -RADZ SCT016 BKN035 WHT WNW (300°) 17.3mph 11°C 8°C
22/05/19 16:25 EGQS 221525Z 31014KT 9999 FEW014 SCT018 BKN030 11/09 Q1013 WHT TEMPO FEW018 BKN045 BLU NW (310°) 16.1mph 11°C 9°C
22/05/19 15:50 EGQS 221450Z 31012KT 9999 -RA SCT013 SCT018 BKN035 11/09 Q1013 GRN TEMPO 5000 SHRA GRN -RA NW (310°) 13.8mph 11°C 9°C
22/05/19 15:32 EGQS 221432Z 29014KT 9999 -SHRA FEW012 SCT018 BKN035 11/09 Q1013 WHT TEMPO 4000 SHRA BKN008 BKN020 -SHRA WNW (290°) 16.1mph 11°C 9°C
22/05/19 14:50 EGQS 221350Z 29014KT 9999 FEW008 BKN035 BKN070 12/09 Q1013 BLU TEMPO 4000 SHRA BKN008 BKN022 GRN WNW (290°) 16.1mph 12°C 9°C
22/05/19 13:50 EGQS 221250Z 32011KT 9999 -SHRA SCT008 BKN015 OVC035 11/10 Q1013 RESHRA GRN TEMPO 9999 NSW SCT010 BKN030 GRN -SHRA NW (320°) 12.7mph 11°C 10°C
22/05/19 13:43 EGQS 221243Z 30012KT 3000 +SHRA SCT007 BKN010 OVC015 11/10 Q1013 YLO1 TEMPO 9999 NSW SCT016 BKN045 WHT +SHRA WNW (300°) 13.8mph 11°C 10°C
22/05/19 13:08 EGQS 221208Z 29013KT 4500 SHRA BKN010 BKN023 BKN045 11/10 Q1013 GRN TEMPO 9999 NSW SCT016 BKN045 WHT SHRA WNW (290°) 15.0mph 11°C 10°C
22/05/19 12:38 EGQS 221138Z 27013KT 9999 FEW008 SCT024 BKN045 12/10 Q1014 WHT TEMPO 5000 -RADZ SCT010 BKN030 GRN W (270°) 15.0mph 12°C 10°C
22/05/19 11:50 EGQS 221050Z 28010KT 9999 FEW007 SCT035 BKN045 11/10 Q1014 BLU TEMPO 5000 -RADZ SCT010 BKN030 GRN W (280°) 11.5mph 11°C 10°C
22/05/19 11:31 EGQS 221031Z 28010KT 8000 -RA FEW007 BKN030 11/10 Q1014 BLU TEMPO 5000 RADZ SCT010 BKN030 GRN -RA W (280°) 11.5mph 11°C 10°C
22/05/19 10:50 EGQS 220950Z 27011KT 8000 -RA FEW004 BKN007 BKN018 10/10 Q1014 GRN TEMPO 4000 -RADZ GRN -RA W (270°) 12.7mph 10°C 10°C
22/05/19 10:38 EGQS 220938Z 29012KT 9999 5000S -RA FEW005 BKN007 OVC018 10/09 Q1014 GRN TEMPO 9999 NSW FEW010 BKN018 WHT -RA WNW (290°) 13.8mph 10°C 9°C
22/05/19 10:18 EGQS 220918Z 27011KT 3000 -RADZ BKN006 OVC012 10/09 Q1014 YLO1 TEMPO 9999 NSW FEW010 BKN018M -RA -DZ W (270°) 12.7mph 10°C 9°C
22/05/19 09:12 EGQS 220812Z 25011KT 9999 FEW004 BKN009 09/09 Q1014 GRN TEMPO 5000 -RA GRN WSW (250°) 12.7mph 9°C 9°C
22/05/19 08:28 EGQS 220728Z 25009KT 4000 -RADZ SCT006 BKN007 BKN014 08/08 Q1014 RERA REDZ YLO1 TEMPO 5000 -RA BKN010 GRN -RA -DZ WSW (250°) 10.4mph 8°C 8°C
22/05/19 07:57 EGQS 220657Z 25011KT 4000 -RADZ SCT008 BKN012 OVC020 08/08 Q1014 GRN TEMPO 5000 -RADZ GRN -RA -DZ WSW (250°) 12.7mph 8°C 8°C
22/05/19 06:50 EGQS 220550Z 25013KT 9999 -RA FEW013 BKN015 OVC030 08/07 Q1014 RERA WHT TEMPO 7000 SHRA SCT012 BKN015 GRN -RA WSW (250°) 15.0mph 8°C 7°C
22/05/19 05:50 EGQS 220450Z 25014KT 7000 RA FEW020 BKN045 07/07 Q1015 WHT RA WSW (250°) 16.1mph 7°C 7°C
22/05/19 04:50 EGQS 220350Z 25014KT 9999 -RA FEW014 SCT020 BKN040 07/06 Q1015 WHT -RA WSW (250°) 16.1mph 7°C 6°C
22/05/19 03:50 EGQS 220250Z 24012KT 9999 7000S -RA FEW020 BKN025 BKN035 08/07 Q1015 WHT -RA WSW (240°) 13.8mph 8°C 7°C
22/05/19 02:50 EGQS 220150Z 25012KT 9999 RA SCT030 BKN045 08/06 Q1016 BLU RA WSW (250°) 13.8mph 8°C 6°C
22/05/19 01:50 EGQS 220050Z 24013KT 9999 FEW028 BKN050 BKN070 08/05 Q1016 BLU WSW (240°) 15.0mph 8°C 5°C
22/05/19 00:50 EGQS 212350Z 24010KT 9999 FEW030 BKN050 08/05 Q1017 BLU WSW (240°) 11.5mph 8°C 5°C
21/05/19 23:50 EGQS 212250Z 27013KT 9999 FEW020 SCT055 BKN160 10/06 Q1017 BLU NOSIG W (270°) 15.0mph 10°C 6°C
21/05/19 22:50 EGQS 212150Z 29012KT 9999 FEW020 09/06 Q1017 BLU NOSIG WNW (290°) 13.8mph 9°C 6°C
21/05/19 21:50 EGQS 212050Z 30014KT 9999 FEW030 10/05 Q1018 BLU NOSIG WNW (300°) 16.1mph 10°C 5°C